createdAt,value
2023-04-15T00:04:28.404Z,2.93
2023-04-15T00:09:31.115Z,0.97
2023-04-15T00:14:35.142Z,1.90
2023-04-15T00:19:37.470Z,1.20
2023-04-15T00:24:40.451Z,3.30
2023-04-15T00:29:42.948Z,3.27
2023-04-15T00:34:45.953Z,1.33
2023-04-15T00:39:48.334Z,2.33
2023-04-15T00:44:50.801Z,1.83
2023-04-15T00:49:53.714Z,0.97
2023-04-15T00:54:56.012Z,2.03
2023-04-15T00:59:58.689Z,0.70
2023-04-15T01:05:01.361Z,1.30
2023-04-15T01:10:05.093Z,0.90
2023-04-15T01:15:08.452Z,3.40
2023-04-15T01:20:11.954Z,1.40
2023-04-15T01:25:19.706Z,1.97
2023-04-15T01:30:22.198Z,5.77
2023-04-15T01:35:24.528Z,1.37
2023-04-15T01:40:27.034Z,2.00
2023-04-15T01:45:30.619Z,3.80
2023-04-15T01:50:34.469Z,1.43
2023-04-15T01:55:38.043Z,2.60
2023-04-15T02:00:45.817Z,1.23
2023-04-15T02:05:49.672Z,1.23
2023-04-15T02:10:53.259Z,2.10
2023-04-15T02:15:57.809Z,1.23
2023-04-15T02:21:01.450Z,1.80
2023-04-15T02:26:04.955Z,3.07
2023-04-15T02:31:09.965Z,2.13
2023-04-15T02:36:13.755Z,1.17
2023-04-15T02:41:17.785Z,1.43
2023-04-15T02:46:23.344Z,3.73
2023-04-15T02:51:26.984Z,2.40
2023-04-15T02:56:31.298Z,1.87
2023-04-15T03:01:34.942Z,3.33
2023-04-15T03:06:38.558Z,3.83
2023-04-15T03:11:43.992Z,9.57
2023-04-15T03:16:47.534Z,2.57
2023-04-15T03:21:53.408Z,4.67
2023-04-15T03:26:58.184Z,3.10
2023-04-15T03:32:02.219Z,1.13
2023-04-15T03:37:09.760Z,1.33
2023-04-15T03:42:13.397Z,4.03
2023-04-15T03:47:16.901Z,3.50
2023-04-15T03:52:21.792Z,4.10
2023-04-15T03:57:25.335Z,2.30
2023-04-15T04:02:29.026Z,3.57
2023-04-15T04:07:32.749Z,2.27
2023-04-15T04:12:36.387Z,1.50
2023-04-15T04:17:40.025Z,1.67
2023-04-15T04:22:43.617Z,1.03
2023-04-15T04:27:47.477Z,2.83
2023-04-15T04:32:52.015Z,3.33
2023-04-15T04:37:55.636Z,2.83
2023-04-15T04:42:59.241Z,1.63
2023-04-15T04:48:02.901Z,3.27
2023-04-15T04:53:06.582Z,3.53
2023-04-15T04:58:10.109Z,3.33
2023-04-15T05:03:13.860Z,3.20
2023-04-15T05:08:17.481Z,5.43
2023-04-15T05:13:22.791Z,4.50
2023-04-15T05:18:26.516Z,3.30
2023-04-15T05:23:30.076Z,2.27
2023-04-15T05:28:33.626Z,5.43
2023-04-15T05:33:37.423Z,1.97
2023-04-15T05:38:41.390Z,6.63
2023-04-15T05:43:46.397Z,2.63
2023-04-15T05:48:49.969Z,4.57
2023-04-15T05:53:53.651Z,2.17
2023-04-15T05:58:57.259Z,3.97
2023-04-15T06:04:00.854Z,8.10
2023-04-15T06:09:05.101Z,6.97
2023-04-15T06:14:08.758Z,6.53
2023-04-15T06:19:12.762Z,2.53
2023-04-15T06:24:16.497Z,4.30
2023-04-15T06:29:20.041Z,2.20
2023-04-15T06:34:23.666Z,1.73
2023-04-15T06:39:27.418Z,1.93
2023-04-15T06:44:33.295Z,4.20
2023-04-15T06:49:37.507Z,2.73
2023-04-15T06:54:41.255Z,4.37
2023-04-15T06:59:44.763Z,3.27
2023-04-15T07:25:01.769Z,3.47
2023-04-15T07:30:05.855Z,7.53
2023-04-15T07:35:10.136Z,8.33
2023-04-15T07:40:15.010Z,7.60
2023-04-15T07:45:18.649Z,6.20
2023-04-15T07:50:23.359Z,6.30
2023-04-15T07:55:28.253Z,3.83
2023-04-15T08:00:32.487Z,4.17
2023-04-15T08:05:35.970Z,3.53
2023-04-15T08:10:39.475Z,4.10
2023-04-15T08:15:43.701Z,6.73
2023-04-15T08:20:48.108Z,3.30
2023-04-15T08:25:51.616Z,4.20
2023-04-15T08:30:55.967Z,7.83
2023-04-15T08:35:59.498Z,5.17
2023-04-15T08:41:26.952Z,6.13
2023-04-15T08:46:33.216Z,3.70
2023-04-15T08:51:37.054Z,2.63
2023-04-15T08:56:41.109Z,3.43
2023-04-15T09:01:44.699Z,5.33
2023-04-15T09:06:48.458Z,2.87
2023-04-15T09:11:51.989Z,3.20
2023-04-15T09:17:28.470Z,6.93
2023-04-15T09:23:02.661Z,4.53
2023-04-15T09:28:06.660Z,7.70
2023-04-15T09:33:11.348Z,4.90
2023-04-15T09:38:15.050Z,4.80
2023-04-15T09:43:18.908Z,6.90
2023-04-15T09:48:26.830Z,4.67
2023-04-15T09:53:31.819Z,4.80
2023-04-15T09:58:37.501Z,6.10
2023-04-15T10:03:42.665Z,3.03
2023-04-15T10:08:46.768Z,5.30
2023-04-15T10:13:51.584Z,4.07
2023-04-15T10:18:56.861Z,4.63
2023-04-15T10:24:02.387Z,5.47
2023-04-15T10:29:06.498Z,7.87
2023-04-15T10:34:10.531Z,10.73
2023-04-15T10:39:45.641Z,3.53
2023-04-15T10:44:52.301Z,3.50
2023-04-15T10:50:00.839Z,7.90
2023-04-15T10:55:16.369Z,6.60
2023-04-15T11:00:21.017Z,4.70
2023-04-15T11:05:54.014Z,1.80
2023-04-15T11:10:57.694Z,3.47
2023-04-15T11:16:02.231Z,3.47
2023-04-15T11:21:07.753Z,4.57
2023-04-15T11:26:14.221Z,3.43
2023-04-15T11:31:20.419Z,6.60
2023-04-15T11:36:28.251Z,4.00
2023-04-15T11:41:32.209Z,4.53
2023-04-15T11:46:36.002Z,2.27
2023-04-15T11:51:39.881Z,4.67
2023-04-15T11:56:42.350Z,4.03
2023-04-15T12:01:46.987Z,4.43
2023-04-15T12:06:49.913Z,3.83
2023-04-15T12:11:56.074Z,3.60
2023-04-15T12:17:03.311Z,3.17
2023-04-15T12:22:16.152Z,3.53
2023-04-15T12:27:29.799Z,3.70
2023-04-15T12:32:47.936Z,5.27
2023-04-15T12:37:57.823Z,4.10
2023-04-15T12:48:37.923Z,9.87
2023-04-15T12:53:47.439Z,5.45
2023-04-15T12:58:55.041Z,7.53
2023-04-15T13:04:15.202Z,4.73
2023-04-15T13:09:29.379Z,3.70
2023-04-15T13:14:37.775Z,4.00
2023-04-15T13:19:59.991Z,5.72
2023-04-15T13:25:22.632Z,3.60
2023-04-15T13:30:52.254Z,2.53
2023-04-15T13:36:01.743Z,4.87
2023-04-15T13:46:52.698Z,4.10
2023-04-15T13:52:15.154Z,6.37
2023-04-15T14:03:01.936Z,5.63
2023-04-15T14:08:10.020Z,3.97
2023-04-15T14:19:00.566Z,5.17
2023-04-15T14:24:08.075Z,7.17
2023-04-15T14:29:11.767Z,8.30
2023-04-15T14:34:14.553Z,7.20
2023-04-15T14:39:24.180Z,4.70
2023-04-15T14:44:29.334Z,6.30
2023-04-15T14:49:32.814Z,7.00
2023-04-15T14:54:35.412Z,16.33
2023-04-15T14:59:37.811Z,14.37
2023-04-15T15:04:41.083Z,8.13
2023-04-15T15:09:43.576Z,11.53
2023-04-15T15:14:47.018Z,30.47
2023-04-15T15:19:49.440Z,28.20
2023-04-15T15:24:52.064Z,11.27
2023-04-15T15:30:11.349Z,5.37
2023-04-15T15:35:16.985Z,6.15
2023-04-15T15:40:19.567Z,5.03
2023-04-15T15:45:22.468Z,7.27
2023-04-15T15:50:24.865Z,10.67
2023-04-15T15:55:27.883Z,9.40
2023-04-15T16:00:30.372Z,9.30
2023-04-15T16:05:32.737Z,3.97
2023-04-15T16:10:35.473Z,8.53
2023-04-15T16:15:38.069Z,8.63
2023-04-15T16:20:40.711Z,12.40
2023-04-15T16:25:44.468Z,10.97
2023-04-15T16:31:02.274Z,8.90
2023-04-15T16:36:07.304Z,28.87
2023-04-15T16:41:10.068Z,27.77
2023-04-15T16:46:12.461Z,21.27
2023-04-15T16:51:14.836Z,22.37
2023-04-15T16:56:17.340Z,24.30
2023-04-15T17:01:20.748Z,22.53
2023-04-15T17:06:23.196Z,13.47
2023-04-15T17:11:26.474Z,39.30
2023-04-15T17:16:30.853Z,17.37
2023-04-15T17:21:33.477Z,33.03
2023-04-15T17:26:37.839Z,23.80
2023-04-15T17:32:04.045Z,35.13
2023-04-15T17:37:29.408Z,45.90
2023-04-15T17:42:51.787Z,28.30
2023-04-15T17:48:14.749Z,37.43
2023-04-15T17:53:40.134Z,28.00
2023-04-15T17:59:06.283Z,46.83
2023-04-15T18:04:31.620Z,29.37
2023-04-15T18:09:56.193Z,18.20
2023-04-15T18:15:19.020Z,23.63
2023-04-15T18:20:41.463Z,32.20
2023-04-15T18:25:45.983Z,16.13
2023-04-15T18:30:48.698Z,26.73
2023-04-15T18:35:51.336Z,19.97
2023-04-15T18:40:57.160Z,19.47
2023-04-15T18:46:04.213Z,26.17
2023-04-15T18:51:09.672Z,14.13
2023-04-15T18:56:13.106Z,5.67
2023-04-15T19:01:15.858Z,8.47
2023-04-15T19:06:21.061Z,19.53
2023-04-15T19:11:30.962Z,6.93
2023-04-15T19:16:33.415Z,4.53
2023-04-15T19:21:35.915Z,6.60
2023-04-15T19:26:38.446Z,6.50
2023-04-15T19:31:40.908Z,8.30
2023-04-15T19:36:43.333Z,7.57
2023-04-15T19:41:57.970Z,5.77
2023-04-15T19:47:00.475Z,5.73
2023-04-15T19:52:04.546Z,6.93
2023-04-15T19:57:07.053Z,19.10
2023-04-15T20:02:09.681Z,16.50
2023-04-15T20:07:12.231Z,5.80
2023-04-15T20:12:49.807Z,7.43
2023-04-15T20:17:37.446Z,7.97
2023-04-15T20:22:39.983Z,15.97
2023-04-15T20:27:42.468Z,11.33
2023-04-15T20:32:44.939Z,8.73
2023-04-15T20:37:47.466Z,6.50
2023-04-15T20:42:56.840Z,8.13
2023-04-15T20:47:59.385Z,5.50
2023-04-15T20:53:02.031Z,9.10
2023-04-15T20:58:04.736Z,20.30
2023-04-15T21:03:07.370Z,29.63
2023-04-15T21:08:10.420Z,33.00
2023-04-15T21:13:15.544Z,9.90
2023-04-15T21:18:17.874Z,7.03
2023-04-15T21:23:20.236Z,6.73
2023-04-15T21:28:22.861Z,14.80
2023-04-15T21:33:25.602Z,11.13
2023-04-15T21:38:28.051Z,10.60
2023-04-15T21:43:30.379Z,8.73
2023-04-15T21:48:32.805Z,9.57
2023-04-15T21:53:35.253Z,11.70
2023-04-15T21:58:37.730Z,16.50
2023-04-15T22:03:40.496Z,11.33
2023-04-15T22:08:54.890Z,11.90
2023-04-15T22:13:59.099Z,11.53
2023-04-15T22:19:03.010Z,10.67
2023-04-15T22:24:33.923Z,10.87
2023-04-15T22:29:28.505Z,6.77
2023-04-15T22:34:30.841Z,8.60
2023-04-15T22:39:33.092Z,7.20
2023-04-15T22:44:35.354Z,10.97
2023-04-15T22:49:37.646Z,13.93
2023-04-15T22:54:42.667Z,5.67
2023-04-15T22:59:45.011Z,4.50
2023-04-15T23:04:47.458Z,8.20
2023-04-15T23:09:49.808Z,8.83
2023-04-15T23:14:52.066Z,3.63
2023-04-15T23:19:54.341Z,7.13
2023-04-15T23:24:56.867Z,6.53
2023-04-15T23:29:59.288Z,6.87
2023-04-15T23:35:02.288Z,6.53
2023-04-15T23:40:06.823Z,7.20
2023-04-15T23:45:10.211Z,8.07
2023-04-15T23:50:21.609Z,8.53
2023-04-15T23:55:26.824Z,6.63
